Terminal Aerodrome Forecast
Issued by NWS

Home | Current Version | Previous Version | Text Only | Print | Product List | Glossary On
Versions: 1 2 3 4 5 6 7 8 9 10 11 12 13 14 15 16 17 18 19 20 21 22 23 24 25 26 27 28 29 30 31 32
000
FTUS43 KIWX 201130
TAFSBN
TAF
KSBN 201130Z 2012/2112 03005KT P6SM BKN035
      TEMPO 2012/2016 BKN015
     FM202100 12010KT P6SM OVC020
     FM210100 13010KT 4SM -SHRA BR OVC015
     FM210400 17010KT 4SM -SHRA BR OVC006
     FM210900 25010KT P6SM OVC009=

USA.gov is the U.S. government's official web portal to all federal, state and local government web resources and services.